Time;durP1;ratioP1;P1;durP2;ratioP2;P2;SDS_P1;SDS_P2;PMS_P1;PMS_P2;Temp;Humidity;BMP_temperature;BMP_pressure;BME280_temperature;BME280_humidity;BME280_pressure;Samples;Min_cycle;Max_cycle;Signal;HPM_P1;HPM_P2
2022/11/03 00:00:07;;;;;;;12.47;11.27;;;5.20;99.90;;;;;;5009928;28;20171;-44
2022/11/03 00:02:32;;;;;;;13.50;12.27;;;5.20;99.90;;;;;;5003168;28;20192;-44
2022/11/03 00:06:03;;;;;;;13.87;12.37;;;5.20;99.90;;;;;;4995641;28;20192;-48
2022/11/03 00:07:43;;;;;;;14.35;12.65;;;5.20;99.90;;;;;;5002874;28;20220;-45
2022/11/03 00:10:09;;;;;;;13.53;12.27;;;5.10;99.90;;;;;;4993423;28;20649;-44
2022/11/03 00:12:34;;;;;;;13.60;12.40;;;5.10;99.90;;;;;;5002719;28;20725;-46
2022/11/03 00:15:00;;;;;;;14.80;12.07;;;5.10;99.90;;;;;;4996341;28;20207;-45
2022/11/03 00:17:25;;;;;;;13.77;12.40;;;5.10;99.90;;;;;;5004256;28;20959;-44
2022/11/03 00:19:51;;;;;;;14.60;13.10;;;5.10;99.90;;;;;;5003532;28;20274;-49
2022/11/03 00:22:16;;;;;;;14.10;12.70;;;5.10;99.90;;;;;;4994468;28;20268;-43
2022/11/03 00:24:42;;;;;;;14.17;12.77;;;5.10;99.90;;;;;;5009528;28;20207;-46
2022/11/03 00:27:08;;;;;;;14.37;12.60;;;5.10;99.90;;;;;;5000868;28;20658;-44
2022/11/03 00:29:33;;;;;;;13.90;12.50;;;5.10;99.90;;;;;;5005307;28;20198;-45
2022/11/03 00:31:59;;;;;;;16.70;12.67;;;5.10;99.90;;;;;;5002779;28;20243;-48
2022/11/03 00:34:25;;;;;;;15.90;13.10;;;5.10;99.90;;;;;;5002385;28;20201;-45
2022/11/03 00:36:50;;;;;;;14.20;12.80;;;5.10;99.90;;;;;;5008139;28;20180;-45
2022/11/03 00:39:16;;;;;;;15.47;13.53;;;5.10;99.90;;;;;;4998162;28;20569;-45
2022/11/03 00:41:41;;;;;;;13.60;12.20;;;5.10;99.90;;;;;;5000231;28;20207;-44
2022/11/03 00:44:09;;;;;;;18.17;13.40;;;5.10;99.90;;;;;;4998863;28;20273;-44
2022/11/03 00:46:35;;;;;;;14.55;13.25;;;5.10;99.90;;;;;;4995249;28;20656;-46
2022/11/03 00:49:00;;;;;;;15.17;13.63;;;5.20;99.90;;;;;;4996830;28;20303;-47
2022/11/03 00:51:32;;;;;;;14.90;13.50;;;5.20;99.90;;;;;;4991857;28;20226;-44
2022/11/03 00:54:00;;;;;;;17.27;13.93;;;5.20;99.90;;;;;;5008714;28;20454;-46
2022/11/03 00:56:36;;;;;;;14.18;12.68;;;5.20;99.90;;;;;;5007818;28;20187;-45
2022/11/03 00:59:04;;;;;;;15.25;12.93;;;5.20;99.90;;;;;;4999418;28;20553;-43
2022/11/03 01:01:41;;;;;;;14.73;13.40;;;5.30;99.90;;;;;;4994948;28;20271;-48
2022/11/03 01:06:53;;;;;;;14.05;12.50;;;5.30;99.90;;;;;;5001249;28;20769;-46
2022/11/03 01:09:23;;;;;;;13.32;11.93;;;5.30;99.90;;;;;;5010720;28;20191;-49
2022/11/03 01:12:10;;;;;;;13.02;11.93;;;5.30;99.90;;;;;;5001952;28;20302;-46
2022/11/03 01:14:39;;;;;;;15.32;12.45;;;5.40;99.90;;;;;;5005822;28;20187;-43
2022/11/03 01:17:10;;;;;;;13.32;12.15;;;5.40;99.90;;;;;;5001481;28;20192;-47
2022/11/03 01:19:36;;;;;;;15.48;12.20;;;5.40;99.90;;;;;;5017481;28;20188;-47
2022/11/03 01:22:03;;;;;;;13.07;11.88;;;5.50;99.90;;;;;;5000108;28;20905;-45
2022/11/03 01:24:28;;;;;;;13.65;12.25;;;5.50;99.90;;;;;;5000525;28;20676;-47
2022/11/03 01:26:54;;;;;;;14.13;12.73;;;5.50;99.90;;;;;;5005803;28;20187;-44
2022/11/03 01:29:19;;;;;;;13.83;12.40;;;5.50;99.90;;;;;;5009493;28;20183;-45
2022/11/03 01:31:45;;;;;;;13.37;12.27;;;5.40;99.90;;;;;;5002004;28;20207;-44
2022/11/03 01:34:18;;;;;;;14.43;13.03;;;5.40;99.90;;;;;;5002046;28;20702;-45
2022/11/03 01:36:45;;;;;;;13.68;12.25;;;5.40;99.90;;;;;;5008368;28;20190;-43
2022/11/03 01:39:16;;;;;;;14.07;12.68;;;5.40;99.90;;;;;;5008218;28;20175;-45
2022/11/03 01:41:43;;;;;;;14.10;12.80;;;5.40;99.90;;;;;;5000639;28;20271;-44
2022/11/03 01:44:09;;;;;;;13.93;12.63;;;5.40;99.90;;;;;;5010100;28;20637;-47
2022/11/03 01:46:48;;;;;;;14.60;13.20;;;5.40;99.90;;;;;;5011262;28;20265;-43
2022/11/03 01:49:16;;;;;;;13.75;12.25;;;5.40;99.90;;;;;;5004850;28;20218;-45
2022/11/03 01:51:45;;;;;;;14.20;12.77;;;5.40;99.90;;;;;;4993427;28;20236;-44
2022/11/03 01:54:15;;;;;;;14.63;12.82;;;5.40;99.90;;;;;;4999203;28;20548;-47
2022/11/03 01:56:45;;;;;;;17.48;13.50;;;5.30;99.90;;;;;;4996302;28;20184;-44
2022/11/03 01:59:14;;;;;;;14.20;12.15;;;5.30;99.90;;;;;;5004578;28;20192;-47
2022/11/03 02:01:41;;;;;;;13.85;12.48;;;5.30;99.90;;;;;;5003344;28;20183;-45
2022/11/03 02:04:12;;;;;;;15.20;12.95;;;5.30;99.90;;;;;;5000605;28;20568;-45
2022/11/03 02:06:38;;;;;;;15.23;12.38;;;5.30;99.90;;;;;;5010193;28;20188;-44
2022/11/03 02:09:06;;;;;;;16.80;12.63;;;5.20;99.90;;;;;;5010628;28;20737;-44
2022/11/03 02:14:17;;;;;;;14.77;13.25;;;5.20;99.90;;;;;;5009464;28;20174;-48
2022/11/03 02:16:48;;;;;;;17.20;13.20;;;5.10;99.90;;;;;;5007026;28;20195;-48
2022/11/03 02:19:33;;;;;;;14.82;13.43;;;5.10;99.90;;;;;;5008911;28;20583;-50
2022/11/03 02:22:25;;;;;;;14.35;12.85;;;5.00;99.90;;;;;;5009167;28;20200;-43
2022/11/03 02:25:34;;;;;;;18.10;13.15;;;5.00;99.90;;;;;;4999924;28;21013;-47
2022/11/03 02:28:01;;;;;;;13.73;12.43;;;4.90;99.90;;;;;;5005072;28;20210;-47
2022/11/03 02:30:33;;;;;;;13.77;12.40;;;5.00;99.90;;;;;;5011235;28;20179;-48
2022/11/03 02:33:29;;;;;;;16.48;14.23;;;4.90;99.90;;;;;;5001777;28;20204;-44
2022/11/03 02:36:23;;;;;;;14.80;13.27;;;4.90;99.90;;;;;;5003801;28;20183;-43
2022/11/03 02:38:57;;;;;;;15.55;14.13;;;4.90;99.90;;;;;;4997861;28;20282;-48
2022/11/03 02:41:25;;;;;;;16.55;14.88;;;4.90;99.90;;;;;;5010090;28;20229;-44
2022/11/03 02:43:53;;;;;;;16.13;14.63;;;4.90;99.90;;;;;;5007479;28;20233;-49
2022/11/03 02:46:19;;;;;;;15.85;14.30;;;4.90;99.90;;;;;;4994402;28;20191;-45
2022/11/03 02:48:47;;;;;;;17.35;14.23;;;4.80;99.90;;;;;;5001987;28;20195;-47
2022/11/03 02:51:12;;;;;;;14.63;13.05;;;4.80;99.90;;;;;;5009916;28;20535;-43
2022/11/03 02:54:05;;;;;;;16.13;13.43;;;4.80;99.90;;;;;;5000683;28;20193;-44
2022/11/03 02:56:38;;;;;;;14.80;13.30;;;4.80;99.90;;;;;;5004988;28;20629;-45
2022/11/03 02:59:09;;;;;;;16.58;14.20;;;4.80;99.90;;;;;;5007628;28;20546;-44
2022/11/03 03:01:45;;;;;;;14.63;13.20;;;4.70;99.90;;;;;;5007854;28;20555;-45
2022/11/03 03:04:16;;;;;;;14.52;13.13;;;4.80;99.90;;;;;;5000092;28;20537;-48
2022/11/03 03:06:49;;;;;;;15.20;13.65;;;4.70;99.90;;;;;;5005813;28;20195;-43
2022/11/03 03:09:22;;;;;;;16.70;14.77;;;4.70;99.90;;;;;;4999313;28;20653;-48
2022/11/03 03:11:52;;;;;;;15.75;13.43;;;4.70;99.90;;;;;;5003146;28;20199;-44
2022/11/03 03:14:25;;;;;;;16.55;14.75;;;4.70;99.90;;;;;;4999407;28;20215;-43
2022/11/03 03:16:59;;;;;;;17.10;13.70;;;4.60;99.90;;;;;;5002800;28;20544;-44
2022/11/03 03:19:55;;;;;;;17.92;13.93;;;4.60;99.90;;;;;;5011022;28;20186;-48
2022/11/03 03:22:29;;;;;;;16.83;14.15;;;4.60;99.90;;;;;;4992728;28;20214;-49
2022/11/03 03:25:09;;;;;;;16.02;14.43;;;4.70;99.90;;;;;;5003784;28;20944;-48
2022/11/03 03:27:40;;;;;;;15.43;13.90;;;4.60;99.90;;;;;;5008233;28;20260;-44
2022/11/03 03:30:07;;;;;;;15.65;14.00;;;4.60;99.90;;;;;;5004045;28;20222;-46
2022/11/03 03:32:39;;;;;;;17.33;13.63;;;4.60;99.90;;;;;;4999629;28;20214;-45
2022/11/03 03:35:08;;;;;;;16.15;14.45;;;4.60;99.90;;;;;;4992636;28;20829;-43
2022/11/03 03:37:38;;;;;;;15.05;13.45;;;4.60;99.90;;;;;;4990750;28;20654;-43
2022/11/03 03:40:09;;;;;;;15.25;13.35;;;4.60;99.90;;;;;;5002212;28;20176;-43
2022/11/03 03:42:36;;;;;;;17.95;13.82;;;4.60;99.90;;;;;;4997855;28;20242;-46
2022/11/03 03:45:04;;;;;;;16.77;13.75;;;4.60;99.90;;;;;;5002338;28;20641;-46
2022/11/03 03:47:31;;;;;;;16.52;14.63;;;4.60;99.90;;;;;;4996337;28;20219;-45
2022/11/03 03:49:57;;;;;;;14.45;12.93;;;4.60;99.90;;;;;;5009819;28;20186;-43
2022/11/03 03:52:24;;;;;;;14.90;13.45;;;4.60;99.90;;;;;;5020352;28;20207;-48
2022/11/03 03:54:50;;;;;;;15.88;13.68;;;4.50;99.90;;;;;;4998426;28;20641;-45
2022/11/03 03:57:19;;;;;;;17.60;14.30;;;4.50;99.90;;;;;;5009671;28;20187;-47
2022/11/03 03:59:44;;;;;;;14.32;12.93;;;4.50;99.90;;;;;;5004818;28;20529;-46
2022/11/03 04:02:11;;;;;;;16.80;13.60;;;4.40;99.90;;;;;;4996992;28;20179;-45
2022/11/03 04:04:37;;;;;;;14.27;12.98;;;4.40;99.90;;;;;;4993870;28;20271;-43
2022/11/03 04:09:47;;;;;;;15.35;13.95;;;4.30;99.90;;;;;;5008873;28;20905;-46
2022/11/03 04:23:13;;;;;;;16.58;14.45;;;4.20;99.90;;;;;;4994191;28;20187;-47
2022/11/03 04:25:39;;;;;;;16.20;14.50;;;4.20;99.90;;;;;;4993847;28;20195;-43
2022/11/03 04:28:11;;;;;;;16.17;14.47;;;4.20;99.90;;;;;;5009046;28;20257;-43
2022/11/03 04:30:36;;;;;;;17.65;15.85;;;4.20;99.90;;;;;;5006520;28;20258;-43
2022/11/03 04:33:11;;;;;;;17.90;14.57;;;4.20;99.90;;;;;;4999831;28;20611;-47
2022/11/03 04:35:36;;;;;;;16.58;14.65;;;4.20;99.90;;;;;;4998555;28;20182;-45
2022/11/03 04:38:11;;;;;;;15.73;14.10;;;4.20;99.90;;;;;;5007401;28;20516;-43
2022/11/03 04:40:45;;;;;;;15.82;14.18;;;4.20;99.90;;;;;;4995828;28;20191;-44
2022/11/03 04:43:13;;;;;;;20.13;14.48;;;4.20;99.90;;;;;;4990593;28;20262;-46
2022/11/03 04:45:40;;;;;;;22.67;15.38;;;4.20;99.90;;;;;;5021366;28;20191;-47
2022/11/03 04:48:13;;;;;;;16.48;14.77;;;4.20;99.90;;;;;;4994827;28;20177;-49
2022/11/03 04:50:39;;;;;;;17.80;15.20;;;4.30;99.90;;;;;;5002045;28;20180;-43
2022/11/03 04:53:12;;;;;;;17.00;14.37;;;4.30;99.90;;;;;;5001428;28;20183;-45
2022/11/03 04:55:42;;;;;;;16.60;14.93;;;4.40;99.90;;;;;;5007767;28;20422;-43
2022/11/03 04:58:17;;;;;;;20.38;15.77;;;4.40;99.90;;;;;;4997084;28;20207;-44
2022/11/03 05:00:43;;;;;;;16.23;14.52;;;4.40;99.90;;;;;;4996399;28;20229;-45
2022/11/03 05:03:16;;;;;;;17.23;15.43;;;4.50;99.90;;;;;;4988460;28;20676;-46
2022/11/03 05:05:42;;;;;;;18.65;16.10;;;4.50;99.90;;;;;;4992806;28;20699;-46
2022/11/03 05:08:08;;;;;;;19.67;15.65;;;4.50;99.90;;;;;;4980809;28;20187;-55
2022/11/03 05:10:34;;;;;;;21.77;16.55;;;4.60;99.90;;;;;;4979952;28;20288;-43
2022/11/03 05:13:00;;;;;;;17.52;15.55;;;4.60;99.90;;;;;;4983055;28;20608;-46
2022/11/03 05:15:34;;;;;;;20.30;16.55;;;4.60;99.90;;;;;;4991085;28;20207;-44
2022/11/03 05:18:02;;;;;;;20.55;16.52;;;4.60;99.90;;;;;;4982574;28;20307;-44
2022/11/03 05:20:35;;;;;;;19.60;16.13;;;4.60;99.90;;;;;;4987663;28;20227;-46
2022/11/03 05:23:02;;;;;;;20.65;15.80;;;4.60;99.90;;;;;;4983156;28;20198;-45
2022/11/03 05:25:41;;;;;;;21.15;16.55;;;4.60;99.90;;;;;;4988018;28;20289;-46
2022/11/03 05:28:20;;;;;;;17.52;15.68;;;4.60;99.90;;;;;;4999631;28;20187;-45
2022/11/03 05:30:49;;;;;;;19.58;16.05;;;4.70;99.90;;;;;;4989357;28;20198;-47
2022/11/03 05:33:18;;;;;;;16.83;15.13;;;4.70;99.90;;;;;;5002383;28;20191;-46
2022/11/03 05:35:44;;;;;;;18.67;16.05;;;4.60;99.90;;;;;;4996055;28;20635;-48
2022/11/03 05:38:13;;;;;;;19.43;14.30;;;4.60;99.90;;;;;;4989665;28;20180;-47
2022/11/03 05:40:40;;;;;;;18.70;15.75;;;4.60;99.90;;;;;;5008578;28;20188;-46
2022/11/03 05:43:09;;;;;;;17.05;15.25;;;4.60;99.90;;;;;;5009035;28;20182;-46
2022/11/03 05:45:36;;;;;;;16.77;15.00;;;4.50;99.90;;;;;;5003851;28;20275;-45
2022/11/03 05:48:10;;;;;;;20.52;18.17;;;4.50;99.90;;;;;;4999234;28;20180;-46
2022/11/03 05:50:38;;;;;;;21.85;18.17;;;4.50;99.90;;;;;;4999101;28;20183;-45
2022/11/03 05:53:21;;;;;;;20.90;16.90;;;4.50;99.90;;;;;;5012329;28;20184;-45
2022/11/03 05:55:47;;;;;;;20.30;15.95;;;4.40;99.90;;;;;;4998847;28;20171;-47
2022/11/03 05:58:34;;;;;;;22.13;15.67;;;4.40;99.90;;;;;;5000025;28;20254;-51
2022/11/03 06:01:04;;;;;;;17.95;16.15;;;4.40;99.90;;;;;;5000695;28;20273;-46
2022/11/03 06:03:36;;;;;;;22.08;17.15;;;4.40;99.90;;;;;;4999044;28;20868;-46
2022/11/03 06:06:09;;;;;;;18.98;16.85;;;4.40;99.90;;;;;;5012119;28;20180;-50
2022/11/03 06:08:35;;;;;;;15.52;14.10;;;4.40;99.90;;;;;;5012071;28;20187;-50
2022/11/03 06:11:02;;;;;;;16.00;13.23;;;4.50;99.90;;;;;;5011931;28;20200;-46
2022/11/03 06:13:35;;;;;;;17.80;13.35;;;4.80;99.90;;;;;;5008470;28;20442;-49
2022/11/03 06:16:17;;;;;;;19.75;13.75;;;5.00;99.90;;;;;;5003236;28;20597;-51
2022/11/03 06:18:43;;;;;;;14.00;12.60;;;5.20;99.90;;;;;;5012177;28;20595;-49
2022/11/03 06:21:17;;;;;;;15.57;12.43;;;5.40;99.90;;;;;;5011515;28;20269;-46
2022/11/03 06:23:43;;;;;;;17.63;13.65;;;5.60;99.90;;;;;;5011710;28;20940;-45
2022/11/03 06:26:26;;;;;;;14.70;12.63;;;5.80;99.90;;;;;;5001933;28;20276;-47
2022/11/03 06:28:52;;;;;;;15.30;12.10;;;5.80;99.90;;;;;;4990931;28;20211;-43
2022/11/03 06:31:30;;;;;;;17.38;12.48;;;6.00;99.90;;;;;;4991950;28;20459;-52
2022/11/03 06:33:57;;;;;;;14.23;12.20;;;6.10;99.90;;;;;;5007692;28;20206;-49
2022/11/03 06:36:35;;;;;;;14.38;11.50;;;6.30;99.90;;;;;;4999431;28;20178;-45
2022/11/03 06:39:07;;;;;;;14.15;11.98;;;6.50;99.90;;;;;;5011556;28;20177;-44
2022/11/03 06:41:35;;;;;;;12.40;11.10;;;6.60;99.90;;;;;;5006001;28;20960;-46
2022/11/03 06:44:15;;;;;;;12.70;10.70;;;6.70;99.90;;;;;;4998393;28;20991;-43
2022/11/03 06:46:40;;;;;;;13.93;11.70;;;6.90;99.90;;;;;;4990488;28;20525;-48
2022/11/03 06:49:28;;;;;;;13.10;11.67;;;7.00;99.90;;;;;;4991956;28;21253;-46
2022/11/03 06:51:55;;;;;;;11.73;10.60;;;7.10;99.90;;;;;;5000763;28;20198;-48
2022/11/03 06:54:20;;;;;;;14.03;10.30;;;7.20;99.90;;;;;;5011314;28;21201;-44
2022/11/03 06:56:46;;;;;;;11.53;10.43;;;7.30;99.90;;;;;;5002498;28;20418;-48
2022/11/03 06:59:14;;;;;;;11.90;10.70;;;7.40;99.90;;;;;;4991363;28;20226;-50
2022/11/03 07:01:40;;;;;;;11.07;10.10;;;7.60;99.90;;;;;;4991726;28;20254;-45
2022/11/03 07:04:15;;;;;;;11.00;9.80;;;7.70;99.90;;;;;;4993419;28;20435;-44
2022/11/03 07:06:42;;;;;;;10.63;9.67;;;7.80;99.90;;;;;;4997353;28;20216;-43
2022/11/03 07:09:18;;;;;;;10.20;9.20;;;7.90;99.90;;;;;;5009173;28;20445;-47
2022/11/03 07:11:45;;;;;;;10.73;9.67;;;8.00;99.90;;;;;;5008976;28;20476;-44
2022/11/03 07:14:15;;;;;;;9.80;8.97;;;8.10;99.90;;;;;;5000781;28;20931;-46
2022/11/03 07:16:46;;;;;;;11.63;9.93;;;8.20;99.90;;;;;;4992629;28;20414;-48
2022/11/03 07:19:33;;;;;;;12.93;9.27;;;8.30;99.90;;;;;;4992420;28;20426;-44
2022/11/03 07:22:19;;;;;;;10.23;9.23;;;8.40;99.90;;;;;;4991193;28;20442;-44
2022/11/03 07:24:47;;;;;;;10.70;9.13;;;8.60;99.90;;;;;;4992210;28;20445;-48
2022/11/03 07:27:26;;;;;;;10.97;10.00;;;8.70;99.90;;;;;;5010518;28;20424;-54
2022/11/03 07:29:56;;;;;;;10.87;9.77;;;8.80;99.90;;;;;;5009264;28;20418;-45
2022/11/03 07:32:27;;;;;;;10.60;9.60;;;8.90;99.90;;;;;;5010412;28;20461;-51
2022/11/03 07:35:14;;;;;;;10.33;9.47;;;9.00;99.90;;;;;;5009355;28;20491;-45
2022/11/03 07:37:40;;;;;;;11.10;9.97;;;9.20;99.90;;;;;;5008497;28;20430;-47
2022/11/03 07:40:12;;;;;;;10.13;9.13;;;9.60;99.90;;;;;;5005037;28;20448;-47
2022/11/03 07:42:38;;;;;;;11.00;10.00;;;9.80;99.90;;;;;;4992598;28;20431;-48
2022/11/03 07:45:32;;;;;;;11.07;10.07;;;10.10;99.90;;;;;;4990705;28;20485;-47
2022/11/03 07:48:04;;;;;;;9.80;9.00;;;10.50;99.90;;;;;;4993260;28;20195;-44
2022/11/03 07:50:30;;;;;;;10.73;9.73;;;10.70;99.90;;;;;;4990463;28;20414;-47
2022/11/03 07:52:55;;;;;;;10.90;9.77;;;11.10;99.90;;;;;;4997306;28;20975;-48
2022/11/03 07:55:21;;;;;;;10.67;9.73;;;11.30;99.90;;;;;;5008690;28;20630;-44
2022/11/03 07:57:47;;;;;;;17.13;10.00;;;11.60;99.90;;;;;;5006367;28;20177;-45
2022/11/03 08:00:21;;;;;;;11.13;9.93;;;11.80;99.90;;;;;;4990679;28;20288;-49
2022/11/03 08:02:59;;;;;;;9.70;8.90;;;12.00;99.90;;;;;;5008045;28;20433;-47
2022/11/03 08:05:25;;;;;;;10.43;9.53;;;12.00;99.90;;;;;;5010177;28;20437;-47
2022/11/03 08:07:51;;;;;;;10.60;9.80;;;12.10;99.90;;;;;;5007399;28;20442;-47
2022/11/03 08:10:16;;;;;;;11.30;10.43;;;12.30;99.90;;;;;;4998422;28;20427;-47
2022/11/03 08:12:42;;;;;;;11.27;10.17;;;12.80;99.90;;;;;;5008019;28;20241;-47
2022/11/03 08:15:08;;;;;;;11.03;10.13;;;13.00;99.90;;;;;;5001633;28;20189;-47
2022/11/03 08:17:33;;;;;;;10.67;9.67;;;13.30;99.90;;;;;;5004710;28;20176;-46
2022/11/03 08:19:59;;;;;;;10.90;10.10;;;13.50;99.90;;;;;;5016652;28;20462;-46
2022/11/03 08:22:25;;;;;;;10.93;9.90;;;13.60;99.80;;;;;;5009564;28;20717;-44
2022/11/03 08:24:51;;;;;;;10.87;9.87;;;13.80;99.40;;;;;;5001528;28;20195;-46
2022/11/03 08:27:18;;;;;;;10.40;9.70;;;13.90;97.90;;;;;;5000766;28;20179;-46
2022/11/03 08:29:43;;;;;;;10.90;10.00;;;14.10;97.90;;;;;;4993115;28;20438;-49
2022/11/03 08:32:09;;;;;;;10.50;9.60;;;14.30;96.80;;;;;;4991135;28;21200;-50
2022/11/03 08:34:34;;;;;;;10.80;9.83;;;14.70;95.40;;;;;;4996166;28;20183;-45
2022/11/03 08:37:00;;;;;;;11.73;10.73;;;14.60;95.20;;;;;;5002952;28;20224;-46
2022/11/03 08:39:26;;;;;;;11.40;10.40;;;14.90;94.30;;;;;;5009401;28;20224;-49
2022/11/03 08:41:51;;;;;;;10.50;9.70;;;14.90;94.20;;;;;;5007710;28;20600;-45
2022/11/03 08:44:17;;;;;;;11.30;10.33;;;15.00;94.10;;;;;;4997584;28;20192;-53
2022/11/03 08:46:42;;;;;;;10.13;9.30;;;14.90;93.50;;;;;;5009177;28;20190;-49
2022/11/03 08:49:08;;;;;;;10.60;9.70;;;15.20;93.20;;;;;;5009296;28;20273;-45
2022/11/03 08:51:33;;;;;;;11.00;10.20;;;15.10;93.10;;;;;;5009315;28;20242;-48
2022/11/03 08:53:59;;;;;;;11.27;10.30;;;15.20;92.80;;;;;;5002595;28;20579;-47
2022/11/03 08:56:24;;;;;;;10.80;10.00;;;15.40;92.80;;;;;;4989631;28;20188;-45
2022/11/03 08:58:50;;;;;;;11.07;10.27;;;15.40;91.90;;;;;;4994244;28;20241;-45
2022/11/03 09:01:15;;;;;;;11.37;10.27;;;15.70;91.70;;;;;;4999372;28;20179;-46
2022/11/03 09:03:41;;;;;;;11.07;10.27;;;16.00;90.80;;;;;;4992574;28;20633;-47
2022/11/03 09:06:07;;;;;;;11.20;10.20;;;16.50;89.70;;;;;;5008716;28;20254;-47
2022/11/03 09:08:33;;;;;;;10.70;10.00;;;16.80;86.40;;;;;;5009006;28;20194;-46
2022/11/03 09:10:58;;;;;;;10.33;9.63;;;17.00;83.20;;;;;;5009067;28;20889;-43
2022/11/03 09:13:24;;;;;;;10.37;9.40;;;17.10;80.60;;;;;;5009004;28;20634;-44
2022/11/03 09:15:49;;;;;;;11.07;9.77;;;17.30;81.10;;;;;;5008398;28;20208;-47
2022/11/03 09:18:15;;;;;;;10.20;9.47;;;17.60;78.30;;;;;;5005814;28;20193;-44
2022/11/03 09:20:41;;;;;;;10.50;9.80;;;17.70;75.80;;;;;;5016359;28;20235;-47
2022/11/03 09:23:06;;;;;;;10.63;9.67;;;18.00;75.10;;;;;;5013178;28;20199;-50
2022/11/03 09:25:32;;;;;;;9.83;9.13;;;18.40;72.10;;;;;;5012821;28;20223;-44
2022/11/03 09:27:57;;;;;;;10.33;9.53;;;18.60;69.90;;;;;;5005736;28;20245;-47
2022/11/03 09:30:23;;;;;;;10.70;9.90;;;18.80;67.60;;;;;;4992852;28;20187;-44
2022/11/03 09:32:49;;;;;;;11.57;10.70;;;19.00;66.20;;;;;;4993070;28;20234;-44
2022/11/03 09:35:15;;;;;;;10.67;9.90;;;19.40;64.10;;;;;;5006502;28;20179;-46
2022/11/03 09:37:41;;;;;;;10.17;9.23;;;19.60;61.30;;;;;;5005860;28;20266;-48
2022/11/03 09:40:08;;;;;;;10.73;9.90;;;19.80;60.30;;;;;;4993108;28;20969;-44
2022/11/03 09:42:36;;;;;;;11.37;10.37;;;20.00;60.40;;;;;;4992791;28;20564;-44
2022/11/03 09:45:03;;;;;;;10.43;9.63;;;20.10;57.30;;;;;;5001734;28;20762;-45
2022/11/03 09:47:38;;;;;;;10.60;9.90;;;19.90;57.10;;;;;;5005397;28;20471;-44
2022/11/03 09:50:04;;;;;;;9.77;9.20;;;20.00;56.60;;;;;;4993098;28;20430;-47
2022/11/03 09:52:30;;;;;;;11.23;10.43;;;20.20;56.50;;;;;;5000286;28;20465;-44
2022/11/03 09:54:56;;;;;;;10.70;9.90;;;20.60;55.20;;;;;;5012355;28;20418;-45
2022/11/03 09:57:25;;;;;;;9.93;9.23;;;20.30;55.30;;;;;;5012042;28;20413;-50
2022/11/03 09:59:51;;;;;;;9.27;8.57;;;20.50;54.00;;;;;;5001662;28;20517;-48
2022/11/03 10:02:29;;;;;;;11.03;10.23;;;20.80;53.30;;;;;;4992462;28;20411;-46
2022/11/03 10:04:57;;;;;;;10.17;9.50;;;21.50;52.30;;;;;;4998547;28;20275;-50
2022/11/03 10:07:25;;;;;;;10.30;9.50;;;21.90;50.80;;;;;;4992567;28;20794;-44
2022/11/03 10:09:52;;;;;;;10.43;9.63;;;22.10;49.70;;;;;;4992477;28;20884;-45
2022/11/03 10:12:19;;;;;;;9.63;9.03;;;22.50;48.20;;;;;;5011637;28;21047;-47
2022/11/03 10:14:46;;;;;;;8.80;8.10;;;22.10;47.40;;;;;;5011977;28;20433;-49
2022/11/03 10:17:20;;;;;;;9.63;9.10;;;22.50;48.20;;;;;;5011603;28;20422;-44
2022/11/03 10:19:50;;;;;;;8.20;7.70;;;22.70;46.10;;;;;;5012354;28;20425;-49
2022/11/03 10:22:16;;;;;;;8.97;8.47;;;22.60;43.40;;;;;;5012438;28;20436;-49
2022/11/03 10:24:42;;;;;;;8.40;7.90;;;22.80;43.70;;;;;;5011792;28;20411;-45
2022/11/03 10:27:25;;;;;;;8.80;8.20;;;22.40;42.90;;;;;;5011573;28;20424;-47
2022/11/03 10:30:11;;;;;;;9.00;8.17;;;22.10;41.90;;;;;;5005891;28;20437;-48
2022/11/03 10:32:37;;;;;;;9.07;8.43;;;21.60;44.00;;;;;;5000286;28;20470;-44
2022/11/03 10:35:33;;;;;;;8.23;7.63;;;22.20;43.40;;;;;;5006720;28;20428;-46
2022/11/03 10:38:26;;;;;;;8.13;7.33;;;22.60;41.80;;;;;;5011557;28;20435;-46
2022/11/03 10:40:52;;;;;;;8.10;7.57;;;22.80;41.90;;;;;;5004549;28;20439;-45
2022/11/03 10:43:17;;;;;;;7.13;6.57;;;22.10;39.90;;;;;;5003839;28;20748;-45
2022/11/03 10:45:43;;;;;;;7.53;7.10;;;21.20;41.40;;;;;;5011513;28;20456;-45
2022/11/03 10:48:09;;;;;;;6.83;6.33;;;21.00;41.90;;;;;;5000953;28;20191;-44
2022/11/03 10:50:38;;;;;;;8.50;8.00;;;20.80;43.30;;;;;;4995715;28;20214;-47
2022/11/03 10:53:03;;;;;;;7.60;7.20;;;21.10;43.30;;;;;;5002160;28;21387;-43
2022/11/03 10:55:29;;;;;;;7.50;7.03;;;21.20;43.60;;;;;;4991709;28;20446;-47
2022/11/03 10:57:56;;;;;;;9.17;8.63;;;21.70;42.90;;;;;;4996315;28;20723;-44
2022/11/03 11:00:23;;;;;;;7.30;6.90;;;20.80;42.30;;;;;;4995210;28;20267;-44
2022/11/03 11:02:55;;;;;;;7.50;6.97;;;20.40;43.30;;;;;;4998394;28;20444;-48
2022/11/03 11:05:22;;;;;;;7.50;7.00;;;20.50;44.10;;;;;;5007468;28;20437;-46
2022/11/03 11:07:51;;;;;;;8.80;8.20;;;19.90;44.90;;;;;;5011015;28;20956;-44
2022/11/03 11:10:18;;;;;;;7.77;7.27;;;19.50;44.40;;;;;;5010932;28;20433;-47
2022/11/03 11:13:02;;;;;;;8.03;7.50;;;19.20;44.60;;;;;;5003156;28;20815;-46
2022/11/03 11:15:50;;;;;;;8.20;7.50;;;18.80;47.20;;;;;;4991399;28;20410;-46
2022/11/03 11:18:45;;;;;;;8.03;7.53;;;18.90;47.60;;;;;;5007411;28;21135;-46
2022/11/03 11:21:19;;;;;;;8.53;7.87;;;19.40;47.70;;;;;;4993132;28;20981;-46
2022/11/03 11:23:46;;;;;;;8.30;7.53;;;19.60;46.10;;;;;;5010382;28;20429;-45
2022/11/03 11:26:13;;;;;;;8.40;7.90;;;19.60;45.70;;;;;;4998389;28;20423;-45
2022/11/03 11:29:07;;;;;;;8.20;7.73;;;19.70;46.10;;;;;;4995793;28;20442;-47
2022/11/03 11:32:09;;;;;;;9.30;8.43;;;19.90;46.50;;;;;;5010540;28;20513;-44
2022/11/03 11:34:35;;;;;;;8.50;7.80;;;20.10;46.50;;;;;;5006508;28;20410;-47
2022/11/03 11:37:02;;;;;;;9.00;8.40;;;20.40;45.50;;;;;;5008217;28;20465;-46
2022/11/03 11:39:29;;;;;;;8.30;7.70;;;20.60;44.80;;;;;;5009516;28;20472;-48
2022/11/03 11:42:07;;;;;;;9.03;8.43;;;20.70;44.90;;;;;;5009749;28;20463;-47
2022/11/03 11:44:38;;;;;;;8.63;8.03;;;20.90;44.70;;;;;;5010262;28;20426;-44
2022/11/03 11:47:22;;;;;;;8.47;7.77;;;20.60;44.40;;;;;;5010198;28;20442;-46
2022/11/03 11:49:59;;;;;;;8.73;8.20;;;20.60;44.50;;;;;;5010000;28;20965;-48
2022/11/03 11:52:26;;;;;;;8.20;7.70;;;20.80;45.50;;;;;;5009990;28;20468;-44
2022/11/03 11:54:51;;;;;;;10.10;9.30;;;20.50;44.70;;;;;;4999996;28;20491;-45
2022/11/03 11:57:21;;;;;;;9.63;9.00;;;20.20;45.80;;;;;;4991628;28;20566;-47
2022/11/03 11:59:48;;;;;;;9.20;8.60;;;19.80;47.00;;;;;;5001227;28;20277;-46
2022/11/03 12:02:21;;;;;;;8.87;8.03;;;20.00;47.30;;;;;;5009981;28;20510;-46
2022/11/03 12:04:47;;;;;;;9.63;8.67;;;20.30;47.40;;;;;;5001477;28;20426;-49
2022/11/03 12:07:13;;;;;;;9.90;9.00;;;20.60;46.30;;;;;;4990447;28;20418;-45
2022/11/03 12:09:40;;;;;;;8.83;8.07;;;20.80;46.40;;;;;;4999083;28;20452;-47
2022/11/03 12:12:06;;;;;;;9.10;8.50;;;20.80;45.40;;;;;;5009780;28;20199;-50
2022/11/03 12:14:39;;;;;;;8.27;7.77;;;21.00;45.80;;;;;;5008569;28;20437;-46
2022/11/03 12:17:16;;;;;;;9.67;8.97;;;20.70;45.70;;;;;;5009631;28;20419;-45
2022/11/03 12:19:50;;;;;;;9.97;9.17;;;20.90;46.60;;;;;;5000457;28;20415;-49
2022/11/03 12:22:25;;;;;;;7.97;7.47;;;21.10;46.50;;;;;;4990417;28;20514;-52
2022/11/03 12:25:07;;;;;;;9.87;9.17;;;20.90;45.70;;;;;;4990317;28;21316;-52
2022/11/03 12:27:33;;;;;;;9.30;8.53;;;21.00;46.40;;;;;;4995396;28;20783;-44
2022/11/03 12:30:01;;;;;;;10.40;9.60;;;20.90;47.00;;;;;;4996542;28;20417;-44
2022/11/03 12:32:27;;;;;;;10.00;9.30;;;21.00;47.70;;;;;;5021149;28;20529;-46
2022/11/03 12:34:54;;;;;;;9.60;8.80;;;21.20;47.90;;;;;;5000946;28;20426;-45
2022/11/03 12:37:20;;;;;;;9.43;8.90;;;21.50;47.50;;;;;;4993198;28;20418;-50
2022/11/03 12:39:45;;;;;;;9.17;8.63;;;21.80;46.20;;;;;;4999106;28;20447;-46
2022/11/03 12:42:11;;;;;;;10.10;9.30;;;22.10;45.90;;;;;;5004280;28;20534;-48
2022/11/03 12:44:36;;;;;;;8.77;8.03;;;22.60;45.90;;;;;;4999846;28;20206;-48
2022/11/03 12:47:02;;;;;;;9.47;8.83;;;22.90;43.30;;;;;;4989807;28;20190;-46
2022/11/03 12:49:27;;;;;;;10.20;9.60;;;22.30;42.90;;;;;;4998696;28;20902;-44
2022/11/03 12:51:53;;;;;;;11.83;9.40;;;22.20;43.80;;;;;;5009613;28;20210;-45
2022/11/03 12:54:20;;;;;;;9.17;8.47;;;22.00;44.50;;;;;;5004416;28;20179;-47
2022/11/03 12:56:46;;;;;;;11.23;10.17;;;21.20;43.50;;;;;;4993812;28;20423;-52
2022/11/03 12:59:12;;;;;;;11.03;10.03;;;21.10;45.40;;;;;;4993822;28;20481;-46
2022/11/03 13:01:37;;;;;;;11.87;10.93;;;20.40;46.00;;;;;;4993640;28;20426;-48
2022/11/03 13:04:04;;;;;;;11.83;10.93;;;19.90;48.00;;;;;;4993877;28;20238;-45
2022/11/03 13:06:31;;;;;;;11.43;10.53;;;20.30;48.40;;;;;;4993540;28;20182;-44
2022/11/03 13:08:56;;;;;;;11.07;10.27;;;20.20;48.00;;;;;;4992499;28;20426;-48
2022/11/03 13:14:06;;;;;;;11.93;11.10;;;20.40;48.70;;;;;;4993965;28;20179;-49